• Join FlightAware (Why Join?)
  • Login
  • US Flag 
02:30PM EDT


 

Airport Tracker/Info


-or-


 

Live Flight TrackerFlight Track Log ✈ N633WC ✈ 17-Jan-2014 ✈ KMAF - KGRI

Flight Track Log - Related Links

Times and Time Zones

All times are in EST time to prevent confusion due to time zone crossing. See the N633WC flight status page for this flight to view local times or setup timezone preferences in your user account.

Time Position Orientation Groundspeed Altitude Reporting Facility
EST Latitude Longitude Course Direction KTS MPH feet Rate Location/Type
03:16PM 31.8711 -102.1108 20° North 161 185 6,800  Level Fort Worth Center
03:17PM 31.9061 -102.0708 44° Northeast 188 216 7,500 840 Climbing Fort Worth Center
03:18PM 31.9572 -102.0547 15° North 192 221 8,600 1,080 Climbing Fort Worth Center
03:19PM 32.1941 -102.1053 23° Northeast  Level Estimated
03:19PM 32.0153 -102.0347 16° North 187 215 9,800  Level Fort Worth Center
03:20PM 32.2444 -102.0860 18° North  Level Estimated
03:20PM 32.0622 -102.0186 16° North 180 207 10,500  Level Fort Worth Center
03:21PM 32.2942 -102.0647 20° North  Level FlightAware Approximate
03:21PM 32.1122 -101.9989 18° North 184 212 11,200  Level Fort Worth Center
03:22PM 32.1614 -101.9808 17° North 187 215 12,000 720 Climbing Fort Worth Center
03:23PM 32.2097 -101.9614 19° North 184 212 12,800 720 Climbing Fort Worth Center
03:24PM 32.2581 -101.9444 17° North 184 212 13,600 840 Climbing Fort Worth Center
03:25PM 32.3167 -101.9206 19° North 186 214 14,600 840 Climbing Fort Worth Center
03:26PM 32.3644 -101.9044 16° North 182 209 15,400 720 Climbing Fort Worth Center
03:27PM 32.4142 -101.8875 16° North 185 213 16,100 660 Climbing Fort Worth Center
03:28PM 32.4642 -101.8689 17° North 188 216 16,800 660 Climbing Fort Worth Center
03:29PM 32.5133 -101.8503 18° North 187 215 17,500 600 Climbing Fort Worth Center
03:30PM 32.5728 -101.8275 18° North 188 216 18,100 540 Climbing Fort Worth Center
03:31PM 32.6217 -101.8089 18° North 186 214 18,700 420 Climbing Fort Worth Center
03:32PM 32.6717 -101.7925 15° North 186 214 19,000 120 Climbing Fort Worth Center
03:33PM 32.7244 -101.7700 20° North 201 231 19,000  Level Fort Worth Center
03:34PM 32.7911 -101.7447 18° North 210 242 19,000  Level Fort Worth Center
03:35PM 32.8467 -101.7231 18° North 211 243 19,000  Level Fort Worth Center
03:36PM 32.9028 -101.7017 18° North 213 245 19,000  Level Fort Worth Center
03:37PM 32.9644 -101.6783 18° North 213 245 19,000  Level Fort Worth Center
03:39PM 33.0247 -101.6542 19° North 213 245 19,000  Level Fort Worth Center
03:40PM 33.0817 -101.6319 18° North 215 247 19,000  Level Fort Worth Center
03:41PM 33.1425 -101.6094 17° North 213 245 19,000  Level Fort Worth Center
03:42PM 33.1983 -101.5875 18° North 212 244 19,000  Level Fort Worth Center
03:43PM 33.2597 -101.5661 16° North 215 247 19,000  Level Fort Worth Center
03:44PM 33.3164 -101.5447 18° North 214 246 19,000  Level Fort Worth Center
03:45PM 33.3731 -101.5233 17° North 213 245 19,000  Level Fort Worth Center
03:46PM 33.4350 -101.4989 18° North 218 251 19,000  Level Fort Worth Center
03:47PM 33.4931 -101.4778 17° North 219 252 19,000  Level Fort Worth Center
03:48PM 33.5522 -101.4536 19° North 212 244 19,000  Level Fort Worth Center
03:49PM 33.6364 -101.4203 18° North 215 247 19,000  Level Albuquerque Center
03:50PM 33.6708 -101.4092 15° North 213 245 19,000  Level Fort Worth Center
03:51PM 33.7272 -101.3875 18° North 213 245 19,000  Level Fort Worth Center
03:52PM 33.7881 -101.3644 17° North 213 245 19,000  Level Fort Worth Center
03:53PM 33.8450 -101.3431 17° North 214 246 19,000  Level Fort Worth Center
03:54PM 33.9047 -101.3200 18° North 209 241 19,000  Level Fort Worth Center
03:55PM 33.9606 -101.2989 17° North 211 243 19,000  Level Fort Worth Center
03:56PM 34.0208 -101.2764 17° North 212 244 19,000  Level Fort Worth Center
03:58PM 34.0994 -101.2422 20° North 209 241 19,000  Level Albuquerque Center
03:58PM 34.1308 -101.2325 14° North 210 242 19,000  Level Fort Worth Center
03:59PM 34.1903 -101.2083 19° North 210 242 19,000  Level Fort Worth Center
04:00PM 34.2461 -101.1867 18° North 211 243 19,000  Level Fort Worth Center
04:01PM 34.3061 -101.1642 17° North 208 239 19,000  Level Fort Worth Center
04:02PM 34.3542 -101.1428 20° North 210 242 19,000  Level Fort Worth Center
04:03PM 34.3872 -101.1294 18° North 207 238 19,000  Level Albuquerque Center
04:04PM 34.4431 -101.1092 17° North 209 241 19,000  Level Albuquerque Center
04:05PM 34.4983 -101.0872 18° North 209 241 19,000  Level Albuquerque Center
04:06PM 34.5525 -101.0664 18° North 208 239 19,000  Level Albuquerque Center
04:07PM 34.6175 -101.0400 18° North 206 237 19,000  Level Albuquerque Center
04:08PM 34.6719 -101.0200 17° North 205 236 19,000  Level Albuquerque Center
04:09PM 34.7267 -100.9992 17° North 206 237 19,000  Level Albuquerque Center
04:10PM 34.7814 -100.9772 18° North 206 237 19,000  Level Albuquerque Center
04:11PM 34.8364 -100.9550 18° North 208 239 19,000  Level Albuquerque Center
04:12PM 34.9022 -100.9292 18° North 208 239 19,000  Level Albuquerque Center
04:13PM 34.9572 -100.9081 17° North 208 239 19,000  Level Albuquerque Center
04:14PM 35.0117 -100.8850 19° North 208 239 19,000  Level Albuquerque Center
04:15PM 35.0661 -100.8636 18° North 207 238 19,000  Level Albuquerque Center
04:16PM 35.1203 -100.8425 18° North 205 236 19,000  Level Albuquerque Center
04:17PM 35.1850 -100.8158 19° North 205 236 19,000  Level Albuquerque Center
04:18PM 35.2397 -100.7942 18° North 207 238 19,000  Level Albuquerque Center
04:19PM 35.2950 -100.7731 17° North 208 239 19,000  Level Albuquerque Center
04:20PM 35.3483 -100.7508 19° North 206 237 19,000  Level Albuquerque Center
04:21PM 35.4014 -100.7306 17° North 202 232 19,000  Level Albuquerque Center
04:22PM 35.4550 -100.7100 17° North 202 232 19,000  Level Albuquerque Center
04:24PM 35.5192 -100.6833 19° North 203 234 19,000  Level Albuquerque Center
04:25PM 35.5719 -100.6619 18° North 202 232 19,000  Level Albuquerque Center
04:26PM 35.6264 -100.6383 19° North 205 236 19,000  Level Albuquerque Center
04:27PM 35.6769 -100.6161 20° North 204 235 19,000  Level Albuquerque Center
04:28PM 35.7319 -100.5933 19° North 205 236 19,000  Level Albuquerque Center
04:29PM 35.7947 -100.5683 18° North 200 230 19,000  Level Albuquerque Center
04:30PM 35.8506 -100.5467 17° North 204 235 19,000  Level Albuquerque Center
04:31PM 35.9064 -100.5236 18° North 208 239 19,000  Level Albuquerque Center
04:32PM 35.9631 -100.5003 18° North 210 242 19,000  Level Albuquerque Center
04:33PM 36.0178 -100.4781 18° North 209 241 19,000  Level Albuquerque Center
04:34PM 36.0744 -100.4547 18° North 211 243 19,000  Level Albuquerque Center
04:35PM 36.1308 -100.4322 18° North 208 239 19,000  Level Kansas City Center
04:36PM 36.1867 -100.4106 17° North 209 241 19,000  Level Kansas City Center
04:37PM 36.2419 -100.3864 19° North 209 241 19,000  Level Kansas City Center
04:38PM 36.2958 -100.3647 18° North 205 236 19,000  Level Kansas City Center
04:39PM 36.3497 -100.3431 18° North 203 234 19,000  Level Kansas City Center
04:40PM 36.4031 -100.3217 18° North 201 231 19,000  Level Kansas City Center
04:41PM 36.4564 -100.3000 18° North 201 231 19,000  Level Kansas City Center
04:42PM 36.5206 -100.2739 18° North 201 231 19,000  Level Kansas City Center
04:43PM 36.5739 -100.2531 17° North 200 230 19,000  Level Kansas City Center
04:44PM 36.6261 -100.2300 20° North 199 229 19,000  Level Kansas City Center
04:45PM 36.6808 -100.2078 18° North 203 234 19,000  Level Kansas City Center
04:46PM 36.7339 -100.1850 19° North 201 231 19,000  Level Kansas City Center
04:47PM 36.7950 -100.1603 18° North 203 234 19,000  Level Kansas City Center
04:48PM 36.8464 -100.1400 18° North 203 234 19,000  Level Kansas City Center
04:49PM 36.9083 -100.1142 18° North 207 238 19,000  Level Kansas City Center
04:50PM 36.9642 -100.0908 18° North 208 239 19,000  Level Kansas City Center
04:51PM 37.0225 -100.0669 18° North 209 241 19,100  Climbing Kansas City Center
04:52PM 37.0750 -100.0436 20° North 209 241 19,000 -60 Descending Kansas City Center
04:53PM 37.1372 -100.0172 19° North 211 243 19,000  Level Kansas City Center
04:54PM 37.1894 -99.9947 19° North 209 241 19,000  Level Kansas City Center
04:55PM 37.2536 -99.9689 18° North 214 246 19,000  Level Kansas City Center
04:56PM 37.3064 -99.9450 20° North 213 245 19,000  Level Kansas City Center
04:58PM 37.3661 -99.9211 18° North 206 237 19,000  Level Kansas City Center
04:59PM 37.4169 -99.8978 20° North 204 235 19,000  Level Kansas City Center
05:00PM 37.4750 -99.8744 18° North 199 229 19,000  Level Kansas City Center
05:01PM 37.5258 -99.8528 19° North 200 230 19,000  Level Kansas City Center
05:02PM 37.5836 -99.8286 18° North 198 228 19,000  Level Kansas City Center
05:03PM 37.6339 -99.8069 19° North 199 229 19,000  Level Kansas City Center
05:04PM 37.6922 -99.7822 19° North 199 229 19,000  Level Kansas City Center
05:05PM 37.7439 -99.7606 18° North 202 232 19,000  Level Kansas City Center
05:06PM 37.8019 -99.7342 20° North 201 231 19,000  Level Kansas City Center
05:07PM 37.8525 -99.7128 18° North 201 231 19,000  Level Kansas City Center
05:08PM 37.9106 -99.6872 19° North 198 228 19,000  Level Kansas City Center
05:09PM 37.9608 -99.6656 19° North 199 229 19,000  Level Kansas City Center
05:10PM 38.0203 -99.6400 19° North 201 231 19,000  Level Kansas City Center
05:11PM 38.0717 -99.6175 19° North 203 234 19,000  Level Kansas City Center
05:12PM 38.1311 -99.5922 18° North 202 232 19,000  Level Kansas City Center
05:13PM 38.1819 -99.5697 19° North 202 232 19,000  Level Kansas City Center
05:14PM 38.2414 -99.5428 20° North 204 235 19,000  Level Kansas City Center
05:15PM 38.2922 -99.5214 18° North 203 234 19,000  Level Kansas City Center
05:16PM 38.3439 -99.5000 18° North 203 234 19,000  Level Kansas City Center
05:17PM 38.4025 -99.4739 19° North 200 230 19,000  Level Kansas City Center
05:18PM 38.4542 -99.4508 19° North 204 235 19,000  Level Kansas City Center
05:19PM 38.5142 -99.4233 20° North 205 236 19,000  Level Kansas City Center
05:20PM 38.5678 -99.4028 17° North 209 241 19,000  Level Kansas City Center
05:21PM 38.6272 -99.3750 20° North 205 236 19,000  Level Kansas City Center
05:22PM 38.6789 -99.3544 17° North 203 234 19,000  Level Kansas City Center
05:23PM 38.7375 -99.3258 21° North 203 234 19,000  Level Kansas City Center
05:24PM 38.7886 -99.3042 18° North 202 232 19,000  Level Kansas City Center
05:25PM 38.8483 -99.2786 18° North 202 232 19,000  Level Kansas City Center
05:27PM 38.8992 -99.2542 21° North 203 234 19,000  Level Kansas City Center
05:28PM 38.9586 -99.2289 18° North 203 234 19,000  Level Kansas City Center
05:29PM 39.0119 -99.2075 17° North 202 232 19,000  Level Kansas City Center
05:30PM 39.0658 -99.1822 20° North 198 228 19,000  Level Kansas City Center
05:31PM 39.1197 -99.1592 18° North 196 226 19,000  Level Kansas City Center
05:31PM 39.1419 -99.1494 19° North 196 226 19,000  Level Denver Center
05:32PM 39.1933 -99.1247 20° North 192 221 19,000  Level Denver Center
05:33PM 39.2253 -99.1117 18° North 192 221 19,000  Level Kansas City Center
05:34PM 39.2803 -99.0878 19° North 198 228 19,000  Level Kansas City Center
05:35PM 39.3328 -99.0647 19° North 193 222 19,000  Level Kansas City Center
05:36PM 39.3833 -99.0419 19° North 198 228 19,000  Level Kansas City Center
05:37PM 39.4361 -99.0183 19° North 195 224 19,000  Level Kansas City Center
05:38PM 39.4686 -99.0011 22° Northeast 193 222 19,000  Level Denver Center
05:39PM 39.5194 -98.9789 19° North 192 221 19,000  Level Denver Center
05:40PM 39.5708 -98.9544 20° North 196 226 19,000  Level Denver Center
05:41PM 39.6417 -98.9244 18° North 191 220 19,000  Level Denver Center
05:42PM 39.6917 -98.9008 20° North 191 220 19,000  Level Denver Center
05:43PM 39.7425 -98.8767 20° North 193 222 19,000  Level Denver Center
05:44PM 39.7936 -98.8547 18° North 194 223 19,000  Level Denver Center
05:45PM 39.8436 -98.8308 20° North 191 220 19,000  Level Minneapolis Center
05:46PM 39.8956 -98.8078 19° North 194 223 19,000  Level Denver Center
05:47PM 39.9453 -98.7850 19° North 192 221 19,000  Level Minneapolis Center
05:48PM 39.9958 -98.7611 20° North 192 221 19,000  Level Minneapolis Center
05:49PM 40.0572 -98.7328 19° North 193 222 19,000 -360 Level Minneapolis Center
05:50PM 40.1100 -98.7094 19° North 198 228 18,300 -780 Descending Minneapolis Center
05:51PM 40.1681 -98.6825 20° North 215 247 17,500 -780 Descending Minneapolis Center
05:52PM 40.2258 -98.6558 19° North 220 253 16,700 -1,020 Descending Minneapolis Center
05:53PM 40.2831 -98.6289 20° North 219 252 15,500 -1,200 Descending Minneapolis Center
05:54PM 40.3428 -98.6014 19° North 224 258 14,300 -1,020 Descending Minneapolis Center
05:55PM 40.4014 -98.5747 19° North 224 258 13,400 -1,080 Descending Minneapolis Center
05:56PM 40.4681 -98.5447 19° North 214 246 12,200 -1,140 Descending Minneapolis Center
05:57PM 40.5258 -98.5175 20° North 217 250 11,100 -1,140 Descending Minneapolis Center
05:58PM 40.5861 -98.4908 19° North 223 257 9,900 -1,080 Descending Minneapolis Center
05:59PM 40.6472 -98.4678 16° North 227 261 8,900 -1,020 Descending Minneapolis Center
06:00PM 40.7064 -98.4472 15° North 225 259 7,900 -1,140 Descending Minneapolis Center
06:01PM 40.7639 -98.4228 18° North 220 253 6,600 -1,380 Descending Minneapolis Center
06:02PM 40.8253 -98.3992 16° North 224 258 5,100 -1,140 Descending Minneapolis Center
06:03PM 40.9019 -98.3750 13° North 232 267 4,300 -720 Descending Minneapolis Center
06:05PM 40.9525 -98.3600 13° North 209 241 3,700 -540 Descending Minneapolis Center
06:06PM 40.9953 -98.3569 North 179 206 3,200 -600 Descending Minneapolis Center
06:07PM 40.9967 -98.3172 87° East 155 178 2,500 -720 Descending Minneapolis Center